createdAt,value
2023-05-14T00:02:44.923Z,13.18
2023-05-14T00:07:44.801Z,13.09
2023-05-14T00:12:44.737Z,13.17
2023-05-14T00:17:44.682Z,13.11
2023-05-14T00:22:44.609Z,12.81
2023-05-14T00:27:44.533Z,13.12
2023-05-14T00:32:44.518Z,13.61
2023-05-14T00:37:44.406Z,13.43
2023-05-14T00:42:44.336Z,13.15
2023-05-14T00:47:44.300Z,12.96
2023-05-14T00:52:44.187Z,12.96
2023-05-14T00:57:44.123Z,12.70
2023-05-14T01:02:44.130Z,12.60
2023-05-14T01:07:43.990Z,12.63
2023-05-14T01:12:43.918Z,12.49
2023-05-14T01:17:43.907Z,12.49
2023-05-14T01:22:43.782Z,12.45
2023-05-14T01:27:43.729Z,12.44
2023-05-14T01:32:43.689Z,12.39
2023-05-14T01:37:43.601Z,12.37
2023-05-14T01:42:43.533Z,12.42
2023-05-14T01:47:43.496Z,12.29
2023-05-14T01:52:43.385Z,12.31
2023-05-14T01:57:43.315Z,12.23
2023-05-14T02:02:43.302Z,12.08
2023-05-14T02:07:43.192Z,12.05
2023-05-14T02:12:43.147Z,12.44
2023-05-14T02:17:43.117Z,12.20
2023-05-14T02:22:42.997Z,11.97
2023-05-14T02:27:42.942Z,11.70
2023-05-14T02:32:42.962Z,11.59
2023-05-14T02:37:42.795Z,11.75
2023-05-14T02:42:42.741Z,12.64
2023-05-14T02:47:42.695Z,12.95
2023-05-14T02:52:42.596Z,12.79
2023-05-14T02:57:42.539Z,12.59
2023-05-14T03:02:42.536Z,12.39
2023-05-14T03:07:42.427Z,11.70
2023-05-14T03:12:42.364Z,11.29
2023-05-14T03:17:42.366Z,11.14
2023-05-14T03:22:42.195Z,11.07
2023-05-14T03:27:42.137Z,11.10
2023-05-14T03:32:42.062Z,11.39
2023-05-14T03:37:41.993Z,11.09
2023-05-14T03:42:41.936Z,10.99
2023-05-14T03:47:41.907Z,10.99
2023-05-14T03:52:41.778Z,11.21
2023-05-14T03:57:41.716Z,11.19
2023-05-14T04:02:41.722Z,11.06
2023-05-14T04:07:41.608Z,11.11
2023-05-14T04:12:41.523Z,11.20
2023-05-14T04:17:41.484Z,11.39
2023-05-14T04:22:41.412Z,12.37
2023-05-14T04:27:41.321Z,13.71
2023-05-14T04:32:41.301Z,14.61
2023-05-14T04:37:41.227Z,15.36
2023-05-14T04:42:41.101Z,14.13
2023-05-14T04:47:41.078Z,13.92
2023-05-14T04:52:40.998Z,15.66
2023-05-14T04:57:40.911Z,17.20
2023-05-14T05:02:40.882Z,18.91
2023-05-14T05:07:40.792Z,19.90
2023-05-14T05:12:40.718Z,20.58
2023-05-14T05:17:40.683Z,21.24
2023-05-14T05:22:40.587Z,22.46
2023-05-14T05:27:40.527Z,22.80
2023-05-14T05:32:40.472Z,22.86
2023-05-14T05:37:40.394Z,23.01
2023-05-14T05:42:40.323Z,22.78
2023-05-14T05:47:40.307Z,23.94
2023-05-14T05:52:40.200Z,24.26
2023-05-14T05:57:40.134Z,24.42
2023-05-14T06:02:40.262Z,25.43
2023-05-14T06:07:40.021Z,23.52
2023-05-14T06:12:39.940Z,23.80
2023-05-14T06:17:39.900Z,25.12
2023-05-14T06:22:39.827Z,26.02
2023-05-14T06:27:39.760Z,26.54
2023-05-14T06:32:39.719Z,27.04
2023-05-14T06:37:39.640Z,26.73
2023-05-14T06:42:39.558Z,27.16
2023-05-14T06:47:39.523Z,27.10
2023-05-14T06:52:39.428Z,27.86
2023-05-14T06:57:40.666Z,27.99
2023-05-14T07:02:39.338Z,27.85
2023-05-14T07:07:39.265Z,27.24
2023-05-14T07:12:39.200Z,26.67
2023-05-14T07:17:39.218Z,26.61
2023-05-14T07:22:40.475Z,26.72
2023-05-14T07:27:39.037Z,26.73
2023-05-14T07:32:38.987Z,26.52
2023-05-14T07:37:38.917Z,26.46
2023-05-14T07:42:40.253Z,25.65
2023-05-14T07:47:38.995Z,26.06
2023-05-14T07:52:38.755Z,25.71
2023-05-14T07:57:38.714Z,25.98
2023-05-14T08:02:38.770Z,26.02
2023-05-14T08:07:38.640Z,25.79
2023-05-14T08:12:38.437Z,25.64
2023-05-14T08:17:38.514Z,25.53
2023-05-14T08:22:38.319Z,25.65
2023-05-14T08:27:38.326Z,25.84
2023-05-14T08:32:38.206Z,25.67
2023-05-14T08:37:38.133Z,25.34
2023-05-14T08:42:38.062Z,24.42
2023-05-14T08:47:38.132Z,23.75
2023-05-14T08:52:37.950Z,23.97
2023-05-14T08:57:37.866Z,23.83
2023-05-14T09:02:37.854Z,22.83
2023-05-14T09:07:37.774Z,22.41
2023-05-14T09:12:37.762Z,22.27
2023-05-14T09:17:37.667Z,21.75
2023-05-14T09:22:37.523Z,22.14
2023-05-14T09:27:37.471Z,22.39
2023-05-14T09:32:37.453Z,22.86
2023-05-14T09:37:37.339Z,23.24
2023-05-14T09:42:38.248Z,22.97
2023-05-14T09:47:37.366Z,22.59
2023-05-14T09:52:37.208Z,22.49
2023-05-14T09:57:37.090Z,22.28
2023-05-14T10:02:37.044Z,22.10
2023-05-14T10:07:36.983Z,22.01
2023-05-14T10:12:36.876Z,21.79
2023-05-14T10:17:36.938Z,22.62
2023-05-14T10:22:36.733Z,22.72
2023-05-14T10:27:36.779Z,23.62
2023-05-14T10:32:36.613Z,24.13
2023-05-14T10:37:37.625Z,23.29
2023-05-14T10:42:36.490Z,23.19
2023-05-14T10:47:36.431Z,23.23
2023-05-14T10:52:36.329Z,22.80
2023-05-14T10:57:36.300Z,22.64
2023-05-14T11:02:36.229Z,22.99
2023-05-14T11:07:36.213Z,23.07
2023-05-14T11:12:36.081Z,22.80
2023-05-14T11:17:36.067Z,22.74
2023-05-14T11:22:35.977Z,22.71
2023-05-14T11:27:35.896Z,22.29
2023-05-14T11:32:35.817Z,22.06
2023-05-14T11:37:35.779Z,22.20
2023-05-14T11:42:35.780Z,22.22
2023-05-14T11:47:35.673Z,22.41
2023-05-14T11:52:35.609Z,22.74
2023-05-14T11:57:35.548Z,22.31
2023-05-14T12:02:35.565Z,22.72
2023-05-14T12:07:35.347Z,23.05
2023-05-14T12:12:35.275Z,23.26
2023-05-14T12:17:35.229Z,22.96
2023-05-14T12:22:36.384Z,23.15
2023-05-14T12:27:35.061Z,23.26
2023-05-14T12:32:35.081Z,23.39
2023-05-14T12:37:34.974Z,23.70
2023-05-14T12:42:35.194Z,23.39
2023-05-14T12:47:35.102Z,23.34
2023-05-14T12:52:39.322Z,24.00
2023-05-14T12:57:34.754Z,23.35
2023-05-14T13:02:43.151Z,23.20
2023-05-14T13:07:35.550Z,23.19
2023-05-14T13:12:34.584Z,22.62
2023-05-14T13:17:34.626Z,22.67
2023-05-14T13:22:34.496Z,22.57
2023-05-14T13:27:34.279Z,22.60
2023-05-14T13:32:34.639Z,22.10
2023-05-14T13:37:34.212Z,21.88
2023-05-14T13:42:34.111Z,21.90
2023-05-14T13:47:34.078Z,21.88
2023-05-14T13:52:34.064Z,21.64
2023-05-14T13:57:33.892Z,21.83
2023-05-14T14:02:34.310Z,21.91
2023-05-14T14:07:34.047Z,21.92
2023-05-14T14:12:33.734Z,22.10
2023-05-14T14:17:34.408Z,22.12
2023-05-14T14:22:33.547Z,22.22
2023-05-14T14:27:34.448Z,21.95
2023-05-14T14:32:33.532Z,21.79
2023-05-14T14:37:33.359Z,21.61
2023-05-14T14:42:33.318Z,21.53
2023-05-14T14:47:33.242Z,21.44
2023-05-14T14:52:33.176Z,21.57
2023-05-14T14:57:33.068Z,21.50
2023-05-14T15:02:33.106Z,21.34
2023-05-14T15:07:33.050Z,21.45
2023-05-14T15:12:32.887Z,21.44
2023-05-14T15:17:33.218Z,21.42
2023-05-14T15:22:32.896Z,21.09
2023-05-14T15:27:32.713Z,21.04
2023-05-14T15:32:32.640Z,20.87
2023-05-14T15:37:33.529Z,20.77
2023-05-14T15:42:32.579Z,20.72
2023-05-14T15:47:32.462Z,20.71
2023-05-14T15:52:32.348Z,20.91
2023-05-14T15:57:32.305Z,20.96
2023-05-14T16:02:32.335Z,20.79
2023-05-14T16:07:32.176Z,20.61
2023-05-14T16:12:32.087Z,20.51
2023-05-14T16:17:32.053Z,20.58
2023-05-14T16:22:31.946Z,20.65
2023-05-14T16:27:32.127Z,20.42
2023-05-14T16:32:31.837Z,20.43
2023-05-14T16:37:32.776Z,20.06
2023-05-14T16:42:31.984Z,20.06
2023-05-14T16:47:31.657Z,20.09
2023-05-14T16:52:31.593Z,20.12
2023-05-14T16:57:32.302Z,20.00
2023-05-14T17:02:31.407Z,19.98
2023-05-14T17:07:31.349Z,19.70
2023-05-14T17:12:31.370Z,19.65
2023-05-14T17:17:31.259Z,19.60
2023-05-14T17:22:31.118Z,19.60
2023-05-14T17:27:32.822Z,19.40
2023-05-14T17:32:31.426Z,19.47
2023-05-14T17:37:31.081Z,19.60
2023-05-14T17:42:30.846Z,19.05
2023-05-14T17:47:30.810Z,18.90
2023-05-14T17:52:30.832Z,19.11
2023-05-14T17:57:30.721Z,19.14
2023-05-14T18:02:30.733Z,18.74
2023-05-14T18:07:30.746Z,19.05
2023-05-14T18:12:30.622Z,19.08
2023-05-14T18:17:30.649Z,19.06
2023-05-14T18:22:31.299Z,18.94
2023-05-14T18:27:30.266Z,18.98
2023-05-14T18:32:30.313Z,18.80
2023-05-14T18:37:31.046Z,18.65
2023-05-14T18:42:30.078Z,18.54
2023-05-14T18:47:30.016Z,18.46
2023-05-14T18:52:29.943Z,18.34
2023-05-14T18:57:30.176Z,18.55
2023-05-14T19:02:30.463Z,18.49
2023-05-14T19:07:29.725Z,18.52
2023-05-14T19:12:29.671Z,18.47
2023-05-14T19:17:29.685Z,18.36
2023-05-14T19:22:29.587Z,18.17
2023-05-14T19:27:29.466Z,17.50
2023-05-14T19:32:29.411Z,17.63
2023-05-14T19:37:29.316Z,18.03
2023-05-14T19:42:29.291Z,18.09
2023-05-14T19:47:29.238Z,17.87
2023-05-14T19:52:29.130Z,17.63
2023-05-14T19:57:29.031Z,17.67
2023-05-14T20:02:29.014Z,17.63
2023-05-14T20:07:28.902Z,17.04
2023-05-14T20:12:28.848Z,17.64
2023-05-14T20:17:28.808Z,17.36
2023-05-14T20:22:28.706Z,17.11
2023-05-14T20:27:28.646Z,17.36
2023-05-14T20:32:28.603Z,16.90
2023-05-14T20:37:28.498Z,16.73
2023-05-14T20:42:28.434Z,16.74
2023-05-14T20:47:28.397Z,16.95
2023-05-14T20:52:28.305Z,16.93
2023-05-14T20:57:28.254Z,17.14
2023-05-14T21:02:28.310Z,16.93
2023-05-14T21:07:28.888Z,15.84
2023-05-14T21:12:28.041Z,15.43
2023-05-14T21:17:28.014Z,15.68
2023-05-14T21:22:27.905Z,15.36
2023-05-14T21:27:27.840Z,14.74
2023-05-14T21:32:27.827Z,14.35
2023-05-14T21:37:27.706Z,14.34
2023-05-14T21:42:27.653Z,14.14
2023-05-14T21:47:27.641Z,14.07
2023-05-14T21:52:27.500Z,14.02
2023-05-14T21:57:28.452Z,13.99
2023-05-14T22:02:27.383Z,13.83
2023-05-14T22:07:27.321Z,13.67
2023-05-14T22:12:27.228Z,13.65
2023-05-14T22:17:27.185Z,13.96
2023-05-14T22:22:27.102Z,14.21
2023-05-14T22:27:27.019Z,14.28
2023-05-14T22:32:27.008Z,14.24
2023-05-14T22:37:26.890Z,14.25
2023-05-14T22:42:26.841Z,14.25
2023-05-14T22:47:26.871Z,14.43
2023-05-14T22:52:26.695Z,14.46
2023-05-14T22:57:26.625Z,14.37
2023-05-14T23:02:26.584Z,14.27
2023-05-14T23:07:26.507Z,14.19
2023-05-14T23:12:26.429Z,14.25
2023-05-14T23:17:26.433Z,14.57
2023-05-14T23:22:26.286Z,14.12
2023-05-14T23:27:26.223Z,14.02
2023-05-14T23:32:26.200Z,13.81
2023-05-14T23:37:26.078Z,13.58
2023-05-14T23:42:26.019Z,13.59
2023-05-14T23:47:25.980Z,13.87
2023-05-14T23:52:25.884Z,13.94
2023-05-14T23:57:25.812Z,14.25
